sensor_id;sensor_type;location;lat;lon;timestamp;P1;durP1;ratioP1;P2;durP2;ratioP2
58222;SDS011;44020;50.890;15.796;2023-08-01T00:00:27;4.40;;;2.50;;
58222;SDS011;44020;50.890;15.796;2023-08-01T00:03:15;3.20;;;2.10;;
58222;SDS011;44020;50.890;15.796;2023-08-01T00:05:43;4.50;;;2.50;;
58222;SDS011;44020;50.890;15.796;2023-08-01T00:08:11;4.10;;;2.40;;
58222;SDS011;44020;50.890;15.796;2023-08-01T00:10:42;5.80;;;2.40;;
58222;SDS011;44020;50.890;15.796;2023-08-01T00:13:10;6.40;;;2.70;;
58222;SDS011;44020;50.890;15.796;2023-08-01T00:15:37;7.00;;;2.50;;
58222;SDS011;44020;50.890;15.796;2023-08-01T00:18:08;4.00;;;2.00;;
58222;SDS011;44020;50.890;15.796;2023-08-01T00:20:36;7.20;;;2.60;;
58222;SDS011;44020;50.890;15.796;2023-08-01T00:23:03;4.90;;;2.10;;
58222;SDS011;44020;50.890;15.796;2023-08-01T00:25:34;6.90;;;2.70;;
58222;SDS011;44020;50.890;15.796;2023-08-01T00:28:02;5.30;;;2.60;;
58222;SDS011;44020;50.890;15.796;2023-08-01T00:30:30;6.10;;;2.60;;
58222;SDS011;44020;50.890;15.796;2023-08-01T00:32:57;4.40;;;2.30;;
58222;SDS011;44020;50.890;15.796;2023-08-01T00:35:25;5.50;;;2.80;;
58222;SDS011;44020;50.890;15.796;2023-08-01T00:37:53;5.40;;;2.50;;
58222;SDS011;44020;50.890;15.796;2023-08-01T00:40:20;7.30;;;2.50;;
58222;SDS011;44020;50.890;15.796;2023-08-01T00:42:48;5.50;;;2.50;;
58222;SDS011;44020;50.890;15.796;2023-08-01T00:45:22;5.20;;;2.40;;
58222;SDS011;44020;50.890;15.796;2023-08-01T00:47:51;5.40;;;2.60;;
58222;SDS011;44020;50.890;15.796;2023-08-01T00:50:22;4.20;;;2.50;;
58222;SDS011;44020;50.890;15.796;2023-08-01T00:52:53;3.70;;;1.90;;
58222;SDS011;44020;50.890;15.796;2023-08-01T00:55:21;7.10;;;2.40;;
58222;SDS011;44020;50.890;15.796;2023-08-01T00:57:49;4.80;;;2.50;;
58222;SDS011;44020;50.890;15.796;2023-08-01T01:00:19;4.30;;;2.40;;
58222;SDS011;44020;50.890;15.796;2023-08-01T01:02:46;6.50;;;2.60;;
58222;SDS011;44020;50.890;15.796;2023-08-01T01:05:14;4.20;;;2.00;;
58222;SDS011;44020;50.890;15.796;2023-08-01T01:07:42;2.80;;;2.10;;
58222;SDS011;44020;50.890;15.796;2023-08-01T01:10:11;5.70;;;2.60;;
58222;SDS011;44020;50.890;15.796;2023-08-01T01:12:38;5.20;;;2.90;;
58222;SDS011;44020;50.890;15.796;2023-08-01T01:15:05;6.80;;;2.90;;
58222;SDS011;44020;50.890;15.796;2023-08-01T01:17:33;4.30;;;2.90;;
58222;SDS011;44020;50.890;15.796;2023-08-01T01:20:01;5.70;;;2.80;;
58222;SDS011;44020;50.890;15.796;2023-08-01T01:22:28;6.40;;;3.30;;
58222;SDS011;44020;50.890;15.796;2023-08-01T01:24:57;4.50;;;2.80;;
58222;SDS011;44020;50.890;15.796;2023-08-01T01:27:27;6.00;;;3.00;;
58222;SDS011;44020;50.890;15.796;2023-08-01T01:29:56;6.60;;;2.50;;
58222;SDS011;44020;50.890;15.796;2023-08-01T01:32:36;3.90;;;2.30;;
58222;SDS011;44020;50.890;15.796;2023-08-01T01:35:03;8.70;;;2.70;;
58222;SDS011;44020;50.890;15.796;2023-08-01T01:37:31;3.70;;;2.10;;
58222;SDS011;44020;50.890;15.796;2023-08-01T01:39:59;3.00;;;2.10;;
58222;SDS011;44020;50.890;15.796;2023-08-01T01:42:26;5.80;;;2.20;;
58222;SDS011;44020;50.890;15.796;2023-08-01T01:44:54;3.70;;;2.00;;
58222;SDS011;44020;50.890;15.796;2023-08-01T01:47:21;4.90;;;2.20;;
58222;SDS011;44020;50.890;15.796;2023-08-01T01:49:48;5.50;;;2.10;;
58222;SDS011;44020;50.890;15.796;2023-08-01T01:52:16;3.90;;;2.10;;
58222;SDS011;44020;50.890;15.796;2023-08-01T01:54:43;4.30;;;2.20;;
58222;SDS011;44020;50.890;15.796;2023-08-01T01:57:11;5.00;;;1.90;;
58222;SDS011;44020;50.890;15.796;2023-08-01T01:59:38;3.80;;;2.10;;
58222;SDS011;44020;50.890;15.796;2023-08-01T02:02:05;2.70;;;1.80;;
58222;SDS011;44020;50.890;15.796;2023-08-01T02:04:33;2.90;;;2.00;;
58222;SDS011;44020;50.890;15.796;2023-08-01T02:07:00;3.80;;;2.20;;
58222;SDS011;44020;50.890;15.796;2023-08-01T02:09:31;3.10;;;1.90;;
58222;SDS011;44020;50.890;15.796;2023-08-01T02:11:58;3.70;;;1.90;;
58222;SDS011;44020;50.890;15.796;2023-08-01T02:14:26;2.80;;;1.90;;
58222;SDS011;44020;50.890;15.796;2023-08-01T02:16:53;5.20;;;1.80;;
58222;SDS011;44020;50.890;15.796;2023-08-01T02:19:21;3.70;;;1.90;;
58222;SDS011;44020;50.890;15.796;2023-08-01T02:21:49;4.50;;;1.90;;
58222;SDS011;44020;50.890;15.796;2023-08-01T02:24:16;3.40;;;1.80;;
58222;SDS011;44020;50.890;15.796;2023-08-01T02:26:43;4.60;;;1.90;;
58222;SDS011;44020;50.890;15.796;2023-08-01T02:29:11;4.00;;;2.00;;
58222;SDS011;44020;50.890;15.796;2023-08-01T02:31:38;4.60;;;2.20;;
58222;SDS011;44020;50.890;15.796;2023-08-01T02:34:06;3.70;;;2.00;;
58222;SDS011;44020;50.890;15.796;2023-08-01T02:36:33;5.00;;;2.20;;
58222;SDS011;44020;50.890;15.796;2023-08-01T02:39:01;3.90;;;1.90;;
58222;SDS011;44020;50.890;15.796;2023-08-01T02:41:28;7.00;;;2.80;;
58222;SDS011;44020;50.890;15.796;2023-08-01T02:43:56;5.90;;;2.80;;
58222;SDS011;44020;50.890;15.796;2023-08-01T02:46:23;6.80;;;2.90;;
58222;SDS011;44020;50.890;15.796;2023-08-01T02:48:51;6.00;;;2.90;;
58222;SDS011;44020;50.890;15.796;2023-08-01T02:51:19;4.10;;;2.30;;
58222;SDS011;44020;50.890;15.796;2023-08-01T02:53:46;5.20;;;2.20;;
58222;SDS011;44020;50.890;15.796;2023-08-01T02:56:13;4.70;;;2.30;;
58222;SDS011;44020;50.890;15.796;2023-08-01T02:58:40;5.00;;;1.60;;
58222;SDS011;44020;50.890;15.796;2023-08-01T03:01:09;3.20;;;2.00;;
58222;SDS011;44020;50.890;15.796;2023-08-01T03:03:37;3.70;;;1.70;;
58222;SDS011;44020;50.890;15.796;2023-08-01T03:06:04;4.30;;;1.90;;
58222;SDS011;44020;50.890;15.796;2023-08-01T03:08:32;3.50;;;1.50;;
58222;SDS011;44020;50.890;15.796;2023-08-01T03:10:59;4.00;;;2.10;;
58222;SDS011;44020;50.890;15.796;2023-08-01T03:13:27;3.60;;;1.90;;
58222;SDS011;44020;50.890;15.796;2023-08-01T03:15:54;2.60;;;1.70;;
58222;SDS011;44020;50.890;15.796;2023-08-01T03:18:21;3.60;;;1.80;;
58222;SDS011;44020;50.890;15.796;2023-08-01T03:20:49;3.80;;;1.60;;
58222;SDS011;44020;50.890;15.796;2023-08-01T03:23:17;3.60;;;1.70;;
58222;SDS011;44020;50.890;15.796;2023-08-01T03:25:45;3.30;;;1.90;;
58222;SDS011;44020;50.890;15.796;2023-08-01T03:28:12;4.90;;;2.00;;
58222;SDS011;44020;50.890;15.796;2023-08-01T03:30:41;4.70;;;1.80;;
58222;SDS011;44020;50.890;15.796;2023-08-01T03:33:08;5.40;;;1.80;;
58222;SDS011;44020;50.890;15.796;2023-08-01T03:35:35;3.20;;;1.70;;
58222;SDS011;44020;50.890;15.796;2023-08-01T03:38:03;2.90;;;1.60;;
58222;SDS011;44020;50.890;15.796;2023-08-01T03:40:30;2.90;;;2.00;;
58222;SDS011;44020;50.890;15.796;2023-08-01T03:42:58;3.50;;;1.80;;
58222;SDS011;44020;50.890;15.796;2023-08-01T03:45:25;3.00;;;1.50;;
58222;SDS011;44020;50.890;15.796;2023-08-01T03:47:53;2.60;;;1.50;;
58222;SDS011;44020;50.890;15.796;2023-08-01T03:50:20;3.40;;;1.70;;
58222;SDS011;44020;50.890;15.796;2023-08-01T03:52:48;3.20;;;1.90;;
58222;SDS011;44020;50.890;15.796;2023-08-01T03:55:15;3.40;;;1.90;;
58222;SDS011;44020;50.890;15.796;2023-08-01T03:57:43;2.00;;;1.30;;
58222;SDS011;44020;50.890;15.796;2023-08-01T04:00:14;2.30;;;1.20;;
58222;SDS011;44020;50.890;15.796;2023-08-01T04:02:41;2.30;;;1.40;;
58222;SDS011;44020;50.890;15.796;2023-08-01T04:05:09;2.60;;;1.30;;
58222;SDS011;44020;50.890;15.796;2023-08-01T04:07:37;1.90;;;1.10;;
58222;SDS011;44020;50.890;15.796;2023-08-01T04:10:05;1.50;;;1.00;;
58222;SDS011;44020;50.890;15.796;2023-08-01T04:12:33;2.00;;;1.10;;
58222;SDS011;44020;50.890;15.796;2023-08-01T04:15:01;2.90;;;1.10;;
58222;SDS011;44020;50.890;15.796;2023-08-01T04:17:28;1.90;;;1.00;;
58222;SDS011;44020;50.890;15.796;2023-08-01T04:19:56;1.80;;;1.00;;
58222;SDS011;44020;50.890;15.796;2023-08-01T04:22:24;1.20;;;0.90;;
58222;SDS011;44020;50.890;15.796;2023-08-01T04:24:51;1.90;;;0.90;;
58222;SDS011;44020;50.890;15.796;2023-08-01T04:27:19;1.80;;;1.00;;
58222;SDS011;44020;50.890;15.796;2023-08-01T04:29:47;3.80;;;1.20;;
58222;SDS011;44020;50.890;15.796;2023-08-01T04:32:15;2.10;;;1.20;;
58222;SDS011;44020;50.890;15.796;2023-08-01T04:34:42;2.70;;;1.20;;
58222;SDS011;44020;50.890;15.796;2023-08-01T04:37:09;1.20;;;0.90;;
58222;SDS011;44020;50.890;15.796;2023-08-01T04:39:40;2.20;;;1.20;;
58222;SDS011;44020;50.890;15.796;2023-08-01T04:42:07;3.00;;;1.00;;
58222;SDS011;44020;50.890;15.796;2023-08-01T04:44:35;2.00;;;0.90;;
58222;SDS011;44020;50.890;15.796;2023-08-01T04:47:02;3.60;;;1.10;;
58222;SDS011;44020;50.890;15.796;2023-08-01T04:49:30;2.20;;;1.10;;
58222;SDS011;44020;50.890;15.796;2023-08-01T04:51:58;1.80;;;1.00;;
58222;SDS011;44020;50.890;15.796;2023-08-01T04:54:27;1.80;;;1.20;;
58222;SDS011;44020;50.890;15.796;2023-08-01T04:56:54;1.10;;;0.80;;
58222;SDS011;44020;50.890;15.796;2023-08-01T04:59:21;2.20;;;1.10;;
58222;SDS011;44020;50.890;15.796;2023-08-01T05:01:49;1.10;;;0.60;;
58222;SDS011;44020;50.890;15.796;2023-08-01T05:04:16;1.20;;;0.50;;
58222;SDS011;44020;50.890;15.796;2023-08-01T05:06:43;1.10;;;0.60;;
58222;SDS011;44020;50.890;15.796;2023-08-01T05:09:11;0.80;;;0.60;;
58222;SDS011;44020;50.890;15.796;2023-08-01T05:11:38;0.90;;;0.70;;
58222;SDS011;44020;50.890;15.796;2023-08-01T05:14:05;0.60;;;0.40;;
58222;SDS011;44020;50.890;15.796;2023-08-01T05:16:33;1.10;;;0.50;;
58222;SDS011;44020;50.890;15.796;2023-08-01T05:19:00;0.70;;;0.50;;
58222;SDS011;44020;50.890;15.796;2023-08-01T05:23:57;0.60;;;0.30;;
58222;SDS011;44020;50.890;15.796;2023-08-01T05:26:30;0.70;;;0.40;;
58222;SDS011;44020;50.890;15.796;2023-08-01T05:28:57;0.50;;;0.40;;
58222;SDS011;44020;50.890;15.796;2023-08-01T05:31:25;0.70;;;0.40;;
58222;SDS011;44020;50.890;15.796;2023-08-01T05:33:52;0.40;;;0.30;;
58222;SDS011;44020;50.890;15.796;2023-08-01T05:36:19;0.80;;;0.40;;
58222;SDS011;44020;50.890;15.796;2023-08-01T05:38:46;0.50;;;0.40;;
58222;SDS011;44020;50.890;15.796;2023-08-01T05:41:14;0.40;;;0.30;;
58222;SDS011;44020;50.890;15.796;2023-08-01T05:43:46;2.20;;;0.40;;
58222;SDS011;44020;50.890;15.796;2023-08-01T05:46:15;0.30;;;0.20;;
58222;SDS011;44020;50.890;15.796;2023-08-01T05:48:43;1.40;;;0.50;;
58222;SDS011;44020;50.890;15.796;2023-08-01T05:51:10;0.60;;;0.40;;
58222;SDS011;44020;50.890;15.796;2023-08-01T05:53:37;0.40;;;0.20;;
58222;SDS011;44020;50.890;15.796;2023-08-01T05:56:05;0.50;;;0.30;;
58222;SDS011;44020;50.890;15.796;2023-08-01T05:58:32;0.60;;;0.30;;
58222;SDS011;44020;50.890;15.796;2023-08-01T06:00:59;0.60;;;0.40;;
58222;SDS011;44020;50.890;15.796;2023-08-01T06:03:26;0.30;;;0.30;;
58222;SDS011;44020;50.890;15.796;2023-08-01T06:05:54;0.80;;;0.40;;
58222;SDS011;44020;50.890;15.796;2023-08-01T06:08:21;0.60;;;0.40;;
58222;SDS011;44020;50.890;15.796;2023-08-01T06:10:48;0.90;;;0.50;;
58222;SDS011;44020;50.890;15.796;2023-08-01T06:13:15;0.70;;;0.40;;
58222;SDS011;44020;50.890;15.796;2023-08-01T06:15:43;1.60;;;0.60;;
58222;SDS011;44020;50.890;15.796;2023-08-01T06:18:10;1.00;;;0.60;;
58222;SDS011;44020;50.890;15.796;2023-08-01T06:20:38;1.60;;;0.70;;
58222;SDS011;44020;50.890;15.796;2023-08-01T06:23:06;1.70;;;1.00;;
58222;SDS011;44020;50.890;15.796;2023-08-01T06:25:33;1.70;;;1.00;;
58222;SDS011;44020;50.890;15.796;2023-08-01T06:28:00;2.30;;;1.20;;
58222;SDS011;44020;50.890;15.796;2023-08-01T06:30:27;3.40;;;1.40;;
58222;SDS011;44020;50.890;15.796;2023-08-01T06:32:54;2.40;;;1.50;;
58222;SDS011;44020;50.890;15.796;2023-08-01T06:35:21;3.10;;;1.90;;
58222;SDS011;44020;50.890;15.796;2023-08-01T06:37:48;2.50;;;2.00;;
58222;SDS011;44020;50.890;15.796;2023-08-01T06:40:16;3.10;;;1.70;;
58222;SDS011;44020;50.890;15.796;2023-08-01T06:42:43;3.30;;;1.60;;
58222;SDS011;44020;50.890;15.796;2023-08-01T06:45:10;3.40;;;1.80;;
58222;SDS011;44020;50.890;15.796;2023-08-01T06:47:37;3.40;;;1.50;;
58222;SDS011;44020;50.890;15.796;2023-08-01T06:50:05;3.30;;;1.80;;
58222;SDS011;44020;50.890;15.796;2023-08-01T06:52:33;3.10;;;1.70;;
58222;SDS011;44020;50.890;15.796;2023-08-01T06:55:00;2.90;;;1.60;;
58222;SDS011;44020;50.890;15.796;2023-08-01T06:57:28;2.50;;;1.70;;
58222;SDS011;44020;50.890;15.796;2023-08-01T06:59:56;2.70;;;1.60;;
58222;SDS011;44020;50.890;15.796;2023-08-01T07:02:23;3.10;;;1.70;;
58222;SDS011;44020;50.890;15.796;2023-08-01T07:04:52;3.40;;;1.70;;
58222;SDS011;44020;50.890;15.796;2023-08-01T07:07:19;3.70;;;1.70;;
58222;SDS011;44020;50.890;15.796;2023-08-01T07:09:47;1.80;;;1.10;;
58222;SDS011;44020;50.890;15.796;2023-08-01T07:12:15;2.20;;;1.20;;
58222;SDS011;44020;50.890;15.796;2023-08-01T07:14:42;1.80;;;0.90;;
58222;SDS011;44020;50.890;15.796;2023-08-01T07:17:09;1.50;;;0.90;;
58222;SDS011;44020;50.890;15.796;2023-08-01T07:19:37;1.70;;;0.90;;
58222;SDS011;44020;50.890;15.796;2023-08-01T07:22:04;2.00;;;0.70;;
58222;SDS011;44020;50.890;15.796;2023-08-01T07:24:31;0.80;;;0.50;;
58222;SDS011;44020;50.890;15.796;2023-08-01T07:26:59;1.60;;;0.90;;
58222;SDS011;44020;50.890;15.796;2023-08-01T07:29:26;1.10;;;0.80;;
58222;SDS011;44020;50.890;15.796;2023-08-01T07:31:53;1.20;;;0.60;;
58222;SDS011;44020;50.890;15.796;2023-08-01T07:34:20;1.90;;;0.60;;
58222;SDS011;44020;50.890;15.796;2023-08-01T07:36:48;1.30;;;0.60;;
58222;SDS011;44020;50.890;15.796;2023-08-01T07:39:16;1.40;;;0.70;;
58222;SDS011;44020;50.890;15.796;2023-08-01T07:41:43;2.80;;;1.00;;
58222;SDS011;44020;50.890;15.796;2023-08-01T07:44:11;1.70;;;0.80;;
58222;SDS011;44020;50.890;15.796;2023-08-01T07:46:39;1.60;;;0.40;;
58222;SDS011;44020;50.890;15.796;2023-08-01T07:49:06;1.00;;;0.50;;
58222;SDS011;44020;50.890;15.796;2023-08-01T07:51:33;2.20;;;0.60;;
58222;SDS011;44020;50.890;15.796;2023-08-01T07:54:01;1.20;;;0.60;;
58222;SDS011;44020;50.890;15.796;2023-08-01T07:56:29;1.00;;;0.60;;
58222;SDS011;44020;50.890;15.796;2023-08-01T07:58:56;0.90;;;0.70;;
58222;SDS011;44020;50.890;15.796;2023-08-01T08:01:24;2.50;;;0.90;;
58222;SDS011;44020;50.890;15.796;2023-08-01T08:03:51;1.60;;;0.90;;
58222;SDS011;44020;50.890;15.796;2023-08-01T08:06:19;1.80;;;0.90;;
58222;SDS011;44020;50.890;15.796;2023-08-01T08:08:47;1.30;;;0.80;;
58222;SDS011;44020;50.890;15.796;2023-08-01T08:11:14;1.90;;;1.10;;
58222;SDS011;44020;50.890;15.796;2023-08-01T08:13:43;1.70;;;1.00;;
58222;SDS011;44020;50.890;15.796;2023-08-01T08:16:10;2.30;;;1.30;;
58222;SDS011;44020;50.890;15.796;2023-08-01T08:18:37;3.10;;;1.20;;
58222;SDS011;44020;50.890;15.796;2023-08-01T08:21:04;1.40;;;0.90;;
58222;SDS011;44020;50.890;15.796;2023-08-01T08:23:32;2.00;;;1.10;;
58222;SDS011;44020;50.890;15.796;2023-08-01T08:25:59;6.60;;;1.00;;
58222;SDS011;44020;50.890;15.796;2023-08-01T08:28:27;1.80;;;1.10;;
58222;SDS011;44020;50.890;15.796;2023-08-01T08:30:56;1.40;;;1.00;;
58222;SDS011;44020;50.890;15.796;2023-08-01T08:33:24;1.20;;;0.80;;
58222;SDS011;44020;50.890;15.796;2023-08-01T08:35:51;1.80;;;1.10;;
58222;SDS011;44020;50.890;15.796;2023-08-01T08:38:19;1.70;;;0.80;;
58222;SDS011;44020;50.890;15.796;2023-08-01T08:41:06;1.30;;;0.80;;
58222;SDS011;44020;50.890;15.796;2023-08-01T08:43:47;1.10;;;0.60;;
58222;SDS011;44020;50.890;15.796;2023-08-01T08:46:16;1.10;;;0.70;;
58222;SDS011;44020;50.890;15.796;2023-08-01T08:48:43;1.20;;;0.70;;
